San Diego, California
Traffic Map
Current Weather Conditions
San Diego, California
Few Clouds
Few Clouds
23°
Feels Like: 23°
Wind Chill: 23° Ceiling: Unl
Heat Index: 23° Visibility: 10mi
Dew Point: 16° Wind: 12mph
Humidity: 64% Direction: 320° (NW)
Pressure: 29.93in Gusts: 0mph
Raw Report DataKSAN 192351Z 32010KT 10SM FEW020 23/16 A2993 RMK AO2 SLP134 T02280156 10244 20217 56010
Traffic Incident Summary
Active as of:
Severity:
Category:
InformationThere was an issue retrieving the traffic information for this location. Please try a different location or try again shortly.
Advertisements